Time;durP1;ratioP1;P1;durP2;ratioP2;P2;SDS_P1;SDS_P2;PMS_P1;PMS_P2;Temp;Humidity;BMP_temperature;BMP_pressure;BME280_temperature;BME280_humidity;BME280_pressure;Samples;Min_cycle;Max_cycle;Signal;HPM_P1;HPM_P2
2023/05/13 00:01:37;;;;;;;13.40;7.40;;;;;;;9.08;64.80;99450.31;270910;1269;22560;-83
2023/05/13 00:08:19;;;;;;;7.70;4.70;;;;;;;8.93;64.62;99451.95;270351;1260;22561;-83
2023/05/13 00:14:20;;;;;;;17.70;7.00;;;;;;;8.84;66.07;99454.08;272964;1269;22540;-84
2023/05/13 00:20:43;;;;;;;12.50;6.10;;;;;;;8.84;67.34;99460.47;270022;1269;23363;-84
2023/05/13 00:27:31;;;;;;;11.60;6.60;;;;;;;8.81;68.40;99463.53;273480;1269;22218;-84
2023/05/13 00:33:44;;;;;;;;;;;;;;;8.69;67.71;99464.83;273524;1269;22435;-84
2023/05/13 00:40:16;;;;;;;16.10;7.60;;;;;;;8.42;68.36;99462.95;272783;1270;22191;-83
2023/05/13 00:46:18;;;;;;;11.90;7.40;;;;;;;8.33;69.43;99463.32;270982;1269;25370;-84
2023/05/13 00:52:19;;;;;;;12.80;8.00;;;;;;;8.38;69.90;99464.77;270168;1253;25497;-84
2023/05/13 00:58:40;;;;;;;13.10;8.70;;;;;;;8.33;70.17;99469.17;270017;1269;24382;-84
2023/05/13 01:05:24;;;;;;;15.10;9.70;;;;;;;8.21;69.73;99475.75;270398;1269;22689;-84
2023/05/13 01:12:09;;;;;;;24.30;10.90;;;;;;;8.15;69.47;99479.77;270624;1269;22208;-84
2023/05/13 01:19:01;;;;;;;16.90;9.60;;;;;;;8.22;69.40;99485.45;272855;1272;22223;-85
2023/05/13 01:25:27;;;;;;;18.20;8.80;;;;;;;8.32;69.32;99493.77;266881;1272;8083657;-84
2023/05/13 01:31:28;;;;;;;16.60;9.20;;;;;;;8.36;69.72;99495.62;272928;1272;23337;-84
2023/05/13 01:37:36;;;;;;;15.80;9.60;;;;;;;8.36;70.05;99495.53;272895;1272;23407;-84
2023/05/13 01:43:58;;;;;;;17.00;9.00;;;;;;;8.24;70.47;99497.20;271830;1260;22527;-84
2023/05/13 01:49:59;;;;;;;13.80;8.90;;;;;;;8.13;70.73;99498.04;270520;1266;22589;-84
2023/05/13 01:56:21;;;;;;;12.60;8.50;;;;;;;8.00;71.13;99502.33;270622;1269;22614;-83
2023/05/13 02:02:23;;;;;;;14.50;7.20;;;;;;;7.91;72.15;99500.94;270463;1265;25381;-84
2023/05/13 02:08:26;;;;;;;15.90;8.30;;;;;;;7.82;72.86;99499.94;269957;1259;22532;-84
2023/05/13 02:15:16;;;;;;;14.40;8.50;;;;;;;7.74;73.10;99509.19;269990;1259;22547;-83
2023/05/13 02:21:18;;;;;;;19.80;9.60;;;;;;;7.59;73.02;99513.26;270490;1269;26115;-84
2023/05/13 02:27:22;;;;;;;16.90;9.20;;;;;;;7.43;73.12;99514.83;271896;1270;23327;-83
2023/05/13 02:33:23;;;;;;;15.50;9.50;;;;;;;7.37;74.31;99514.48;273756;1269;22510;-84
2023/05/13 02:39:26;;;;;;;15.40;9.20;;;;;;;7.32;74.90;99518.63;272137;1259;22331;-83
2023/05/13 02:45:28;;;;;;;20.10;10.00;;;;;;;7.22;75.01;99521.41;273271;1269;22334;-83
2023/05/13 02:51:30;;;;;;;20.20;10.60;;;;;;;7.10;75.30;99520.92;272400;1259;22754;-83
2023/05/13 02:57:55;;;;;;;17.50;8.90;;;;;;;6.96;75.80;99530.71;273631;1269;23312;-84
2023/05/13 03:04:56;;;;;;;17.20;8.60;;;;;;;6.99;76.40;99535.25;271975;1269;22540;-83
2023/05/13 03:11:39;;;;;;;13.10;9.30;;;;;;;7.03;77.33;99536.25;270559;1259;23685;-83
2023/05/13 03:19:03;;;;;;;16.00;9.90;;;;;;;7.00;77.64;99536.84;270572;1269;22274;-84
2023/05/13 03:33:50;;;;;;;20.70;9.80;;;;;;;7.09;78.66;99540.13;271774;1276;22171;-85
2023/05/13 03:40:44;;;;;;;16.40;9.70;;;;;;;7.24;79.27;99542.64;271009;1272;24275;-84
2023/05/13 03:47:34;;;;;;;16.10;9.20;;;;;;;7.43;79.97;99548.61;270758;1269;22276;-85
2023/05/13 04:01:25;;;;;;;16.30;10.60;;;;;;;7.72;79.26;99562.64;271593;1269;22565;-85
2023/05/13 04:15:54;;;;;;;14.00;8.60;;;;;;;8.06;79.78;99566.48;270795;1276;23766;-85
2023/05/13 04:22:47;;;;;;;12.90;8.70;;;;;;;8.28;79.64;99565.90;270383;1261;22570;-84
2023/05/13 04:53:13;;;;;;;12.90;8.70;;;;;;;9.33;79.55;99585.16;268927;1279;25400;-84
2023/05/13 05:31:49;;;;;;;;;;;;;;;10.63;77.58;99605.38;273833;1259;22307;-85
2023/05/13 05:53:57;;;;;;;12.70;5.90;;;;;;;11.25;76.56;99611.12;273949;1276;22236;-85
2023/05/13 06:31:23;;;;;;;4.90;3.30;;;;;;;13.26;73.50;99613.46;272332;1276;23527;-84
2023/05/13 06:45:48;;;;;;;8.30;3.40;;;;;;;14.01;71.00;99602.81;272883;1275;22431;-85
2023/05/13 07:47:06;;;;;;;4.20;2.60;;;;;;;17.31;63.46;99593.27;271976;1272;22557;-85
2023/05/13 07:53:36;;;;;;;6.60;2.10;;;;;;;17.44;59.56;99598.58;272869;1270;22223;-85
2023/05/13 07:59:41;;;;;;;3.80;2.30;;;;;;;17.40;57.00;99601.14;273413;1270;24211;-84
2023/05/13 08:05:42;;;;;;;5.60;2.90;;;;;;;17.29;55.85;99604.36;271636;1271;22231;-86
2023/05/13 08:11:44;;;;;;;4.30;2.40;;;;;;;16.85;55.49;99605.95;272620;1260;22193;-84
2023/05/13 08:18:10;;;;;;;7.10;2.70;;;;;;;16.74;55.24;99604.10;271912;1269;22324;-85
2023/05/13 08:41:14;;;;;;;4.50;2.90;;;;;;;17.08;53.85;99605.20;271126;1275;22969;-85
2023/05/13 08:48:05;;;;;;;5.10;2.70;;;;;;;17.40;54.12;99592.60;272990;1269;22223;-85
2023/05/13 08:54:35;;;;;;;5.40;2.80;;;;;;;17.90;53.28;99590.39;272756;1278;22910;-84
2023/05/13 09:01:13;;;;;;;4.50;2.10;;;;;;;17.96;52.59;99586.23;272661;1274;22329;-85
2023/05/13 09:07:20;;;;;;;6.20;2.10;;;;;;;17.97;51.05;99581.08;273660;1272;22254;-85
2023/05/13 09:14:18;;;;;;;5.10;2.20;;;;;;;17.88;49.88;99585.52;273272;1270;23288;-84
2023/05/13 09:20:50;;;;;;;6.50;2.30;;;;;;;17.86;48.63;99588.63;273629;1270;22205;-86
2023/05/13 09:27:37;;;;;;;4.50;2.20;;;;;;;17.93;48.34;99578.73;273234;1272;22310;-85
2023/05/13 09:33:53;;;;;;;4.20;2.00;;;;;;;18.42;47.88;99575.48;273297;1270;22428;-84
2023/05/13 09:40:16;;;;;;;;;;;;;;;19.17;47.41;99572.08;273066;1258;23727;-82
2023/05/13 09:47:24;;;;;;;4.80;2.00;;;;;;;19.80;47.06;99570.79;272044;1276;22812;-83
2023/05/13 09:53:32;;;;;;;6.60;2.30;;;;;;;20.03;46.74;99570.39;269666;1278;22544;-83
2023/05/13 09:59:59;;;;;;;2.90;2.00;;;;;;;19.33;46.27;99572.47;270945;1278;22927;-84
2023/05/13 10:06:04;;;;;;;6.90;1.60;;;;;;;19.59;45.34;99568.10;271133;1270;22312;-84
2023/05/13 10:12:09;;;;;;;5.80;1.70;;;;;;;20.38;43.83;99567.52;273124;1269;22321;-83
2023/05/13 10:18:45;;;;;;;2.80;1.70;;;;;;;20.07;42.44;99576.13;273063;1269;23133;-84
2023/05/13 10:26:16;;;;;;;4.00;1.90;;;;;;;19.26;40.93;99575.81;273475;1269;23805;-84
2023/05/13 10:33:06;;;;;;;5.70;2.10;;;;;;;18.53;41.24;99571.39;272260;1269;22505;-83
2023/05/13 10:39:57;;;;;;;7.10;1.70;;;;;;;18.53;41.83;99568.94;273624;1270;22385;-83
2023/05/13 10:46:03;;;;;;;8.00;2.40;;;;;;;18.55;41.84;99569.24;272747;1270;22354;-82
2023/05/13 10:52:24;;;;;;;4.80;2.20;;;;;;;18.62;41.70;99569.23;273636;1271;22694;-85
2023/05/13 10:59:16;;;;;;;6.00;2.20;;;;;;;18.48;41.95;99569.71;273724;1260;22427;-83
2023/05/13 11:13:10;;;;;;;4.40;2.00;;;;;;;18.53;41.73;99560.00;272924;1269;22333;-83
2023/05/13 11:19:31;;;;;;;6.40;2.20;;;;;;;18.76;41.32;99554.17;273616;1270;22196;-84
2023/05/13 11:25:33;;;;;;;5.60;2.40;;;;;;;18.62;40.85;99551.65;272165;1269;22409;-84
2023/05/13 11:31:51;;;;;;;4.10;1.90;;;;;;;18.60;41.59;99549.29;272016;1261;22372;-85
2023/05/13 11:38:23;;;;;;;2.90;2.20;;;;;;;18.81;41.34;99551.41;272338;1263;22607;-85
2023/05/13 11:44:46;;;;;;;7.30;2.20;;;;;;;18.78;40.75;99553.36;272774;1269;22660;-83
2023/05/13 11:50:56;;;;;;;4.60;2.70;;;;;;;18.51;40.66;99556.93;273357;1269;22510;-83
2023/05/13 11:57:57;;;;;;;6.90;3.20;;;;;;;18.27;40.89;99554.17;273099;1269;22624;-84
2023/05/13 12:11:21;;;;;;;3.40;2.30;;;;;;;17.79;41.43;99547.14;273336;1269;22453;-85
2023/05/13 12:17:25;;;;;;;3.40;2.10;;;;;;;17.66;41.79;99553.52;273599;1260;22166;-84
2023/05/13 12:23:39;;;;;;;5.50;2.50;;;;;;;17.62;42.11;99548.56;272214;1269;22501;-85
2023/05/13 12:29:42;;;;;;;3.70;2.00;;;;;;;17.70;42.25;99545.79;271955;1267;22632;-85
2023/05/13 12:36:13;;;;;;;3.90;1.90;;;;;;;17.92;42.55;99548.29;272616;1270;22354;-84
2023/05/13 12:42:43;;;;;;;4.40;2.20;;;;;;;18.25;41.99;99546.13;272787;1269;22550;-83
2023/05/13 12:48:44;;;;;;;7.70;1.90;;;;;;;18.36;41.80;99543.23;271583;1269;22285;-84
2023/05/13 12:54:47;;;;;;;8.30;2.10;;;;;;;18.16;41.84;99542.64;271628;1257;22545;-84
2023/05/13 13:01:12;;;;;;;4.80;1.70;;;;;;;17.90;41.43;99544.82;270659;1269;25303;-84
2023/05/13 13:07:13;;;;;;;4.30;2.20;;;;;;;17.72;41.57;99545.06;270834;1269;22569;-84
2023/05/13 13:13:14;;;;;;;3.60;2.10;;;;;;;17.72;41.93;99541.59;271458;1262;22748;-84
2023/05/13 13:19:15;;;;;;;4.00;1.70;;;;;;;17.85;42.22;99538.70;271066;1258;22549;-83
2023/05/13 13:26:01;;;;;;;3.20;1.80;;;;;;;17.86;42.23;99536.48;265755;1269;7633774;-83
2023/05/13 13:32:02;;;;;;;6.50;2.50;;;;;;;17.69;42.29;99542.64;273672;1264;22188;-84
2023/05/13 13:38:04;;;;;;;4.30;1.80;;;;;;;17.56;42.26;99538.88;273564;1269;23191;-84
2023/05/13 13:44:25;;;;;;;3.10;2.00;;;;;;;17.45;42.20;99544.09;273355;1269;22509;-83
2023/05/13 13:51:27;;;;;;;6.70;2.20;;;;;;;17.36;42.30;99548.98;272344;1269;25574;-84
2023/05/13 13:58:08;;;;;;;2.90;2.00;;;;;;;17.26;42.73;99550.55;264570;1269;10001818;-84
2023/05/13 14:11:38;;;;;;;4.60;2.90;;;;;;;17.18;43.08;99556.52;272072;1269;23383;-84
2023/05/13 14:17:39;;;;;;;3.00;1.80;;;;;;;17.06;43.05;99555.42;272953;1259;22169;-85
2023/05/13 14:24:10;;;;;;;3.30;1.90;;;;;;;16.97;43.41;99559.89;273163;1259;22641;-84
2023/05/13 14:31:00;;;;;;;3.30;1.70;;;;;;;16.90;43.73;99562.52;272985;1269;23349;-84
2023/05/13 14:37:03;;;;;;;5.30;2.40;;;;;;;16.81;43.99;99567.17;272753;1269;22353;-86
2023/05/13 14:43:06;;;;;;;6.50;2.30;;;;;;;16.68;44.19;99568.50;273602;1257;22358;-84
2023/05/13 14:49:17;;;;;;;4.30;2.80;;;;;;;16.56;44.48;99571.94;273079;1254;22510;-84
2023/05/13 14:55:39;;;;;;;5.00;2.70;;;;;;;16.53;44.89;99570.77;272850;1269;22568;-85
2023/05/13 15:02:30;;;;;;;4.80;2.50;;;;;;;16.50;45.34;99574.80;272231;1269;22498;-85
2023/05/13 15:09:13;;;;;;;4.20;2.50;;;;;;;16.39;45.48;99574.27;272320;1269;23743;-85
2023/05/13 15:15:18;;;;;;;3.70;2.80;;;;;;;16.28;45.67;99579.81;272325;1267;25538;-85
2023/05/13 15:21:42;;;;;;;5.30;3.20;;;;;;;16.25;45.87;99569.64;273194;1269;22296;-85
2023/05/13 15:27:44;;;;;;;4.80;3.10;;;;;;;16.26;46.19;99563.17;273415;1269;22223;-86
2023/05/13 15:33:58;;;;;;;4.40;3.20;;;;;;;16.27;46.46;99565.93;273337;1270;22691;-84
2023/05/13 15:39:59;;;;;;;11.30;4.00;;;;;;;16.16;46.64;99564.60;273631;1269;22432;-85
2023/05/13 15:46:00;;;;;;;4.40;3.40;;;;;;;16.00;47.16;99564.00;273490;1269;22235;-85
2023/05/13 15:52:27;;;;;;;5.30;3.50;;;;;;;16.01;47.32;99561.09;273040;1269;23536;-85
2023/05/13 15:58:28;;;;;;;7.60;3.40;;;;;;;16.16;47.58;99558.86;272518;1269;24014;-85
2023/05/13 16:04:29;;;;;;;5.20;3.20;;;;;;;16.25;47.39;99548.64;272058;1269;22795;-84
2023/05/13 16:11:15;;;;;;;3.50;2.60;;;;;;;16.31;47.12;99545.79;272378;1269;23155;-85
2023/05/13 16:17:59;;;;;;;4.60;2.50;;;;;;;16.38;46.74;99536.14;272365;1269;22406;-84
2023/05/13 16:24:22;;;;;;;3.30;2.50;;;;;;;16.49;46.22;99535.40;273347;1269;22301;-83
2023/05/13 16:31:13;;;;;;;4.00;2.00;;;;;;;16.52;45.79;99539.41;273408;1269;22578;-85
2023/05/13 16:37:16;;;;;;;5.70;2.80;;;;;;;16.44;45.43;99539.60;272243;1269;22540;-84
2023/05/13 16:43:17;;;;;;;3.50;2.20;;;;;;;16.31;45.54;99542.39;273415;1269;22204;-84
2023/05/13 16:49:19;;;;;;;3.50;2.20;;;;;;;16.21;45.50;99539.10;273631;1269;22272;-85
2023/05/13 16:55:22;;;;;;;2.80;1.90;;;;;;;16.08;45.57;99538.58;273307;1269;24010;-84
2023/05/13 17:02:05;;;;;;;2.80;1.90;;;;;;;15.95;45.69;99528.36;271912;1269;22692;-84
2023/05/13 17:08:11;;;;;;;3.60;2.80;;;;;;;15.87;45.84;99523.48;273011;1270;22696;-84
2023/05/13 17:14:38;;;;;;;4.90;3.00;;;;;;;15.78;46.09;99519.88;273527;1269;23504;-84
2023/05/13 17:22:17;;;;;;;5.70;3.20;;;;;;;15.60;46.23;99517.29;273274;1272;22251;-84
2023/05/13 17:29:31;;;;;;;5.00;2.80;;;;;;;15.31;46.49;99518.21;273605;1275;23126;-84
2023/05/13 17:36:03;;;;;;;5.70;3.10;;;;;;;15.12;46.76;99521.02;272973;1269;23834;-84
2023/05/13 17:43:10;;;;;;;7.40;4.10;;;;;;;14.98;47.01;99522.98;273386;1256;22418;-85
2023/05/13 17:56:54;;;;;;;7.20;3.70;;;;;;;14.71;47.73;99528.59;272354;1276;22340;-83
2023/05/13 18:03:35;;;;;;;7.30;4.30;;;;;;;14.57;47.99;99540.43;272388;1267;22225;-84
2023/05/13 18:09:37;;;;;;;9.40;5.00;;;;;;;14.43;48.44;99548.23;271773;1271;22324;-84
2023/05/13 18:15:38;;;;;;;12.30;5.90;;;;;;;14.27;48.71;99546.33;272387;1255;22414;-84
2023/05/13 18:22:20;;;;;;;9.50;6.40;;;;;;;14.09;49.75;99545.21;272799;1270;22362;-83
2023/05/13 18:28:21;;;;;;;10.30;5.80;;;;;;;13.75;51.36;99547.89;272596;1270;22358;-84
2023/05/13 18:34:22;;;;;;;11.70;6.00;;;;;;;13.42;51.10;99551.09;271846;1265;22219;-84
2023/05/13 18:40:48;;;;;;;10.30;7.00;;;;;;;13.18;51.69;99559.43;272606;1266;22531;-83
2023/05/13 18:46:51;;;;;;;15.70;7.80;;;;;;;12.75;52.80;99563.36;271436;1270;22196;-85
2023/05/13 18:52:52;;;;;;;17.10;8.40;;;;;;;12.50;53.20;99570.98;272833;1270;22234;-85
2023/05/13 18:58:53;;;;;;;28.10;13.70;;;;;;;12.44;53.68;99581.64;273257;1274;23582;-84
2023/05/13 19:05:12;;;;;;;21.00;10.90;;;;;;;12.39;54.03;99585.35;273180;1270;22217;-84
2023/05/13 19:12:16;;;;;;;30.80;14.80;;;;;;;12.31;54.57;99589.63;273147;1271;22302;-84
2023/05/13 19:18:21;;;;;;;33.30;13.90;;;;;;;12.19;54.98;99591.66;272141;1264;22437;-84
2023/05/13 19:24:28;;;;;;;36.50;13.60;;;;;;;12.08;55.43;99592.45;273761;1258;23644;-84
2023/05/13 19:31:00;;;;;;;42.70;16.20;;;;;;;11.95;56.00;99594.52;273676;1272;22236;-84
2023/05/13 19:37:32;;;;;;;39.10;15.70;;;;;;;11.86;56.28;99596.58;273839;1270;22225;-84
2023/05/13 19:43:33;;;;;;;30.90;13.60;;;;;;;11.78;56.73;99601.17;272481;1269;22279;-84
2023/05/13 19:57:28;;;;;;;21.20;11.10;;;;;;;11.63;57.65;99597.61;273116;1270;22292;-84
2023/05/13 20:03:33;;;;;;;17.40;9.20;;;;;;;11.50;57.96;99596.67;273493;1273;22221;-85
2023/05/13 20:17:42;;;;;;;15.50;10.40;;;;;;;11.16;59.18;99593.02;273825;1272;24448;-85
2023/05/13 20:23:43;;;;;;;16.70;10.10;;;;;;;10.99;59.87;99590.28;273673;1272;22357;-83
2023/05/13 20:29:46;;;;;;;17.80;10.00;;;;;;;10.90;60.37;99586.59;273623;1259;23464;-84
2023/05/13 20:36:02;;;;;;;18.60;9.70;;;;;;;10.83;60.78;99581.36;273491;1269;22426;-83
2023/05/13 20:42:04;;;;;;;16.70;9.60;;;;;;;10.79;61.12;99576.91;273712;1259;22241;-83
2023/05/13 20:48:05;;;;;;;15.50;9.90;;;;;;;10.76;61.70;99569.89;273652;1269;23229;-83
2023/05/13 20:54:07;;;;;;;14.40;9.00;;;;;;;10.73;62.09;99565.46;273754;1269;22226;-84
2023/05/13 21:00:09;;;;;;;19.00;9.90;;;;;;;10.61;62.50;99566.06;273521;1259;23179;-83
2023/05/13 21:06:10;;;;;;;14.90;9.70;;;;;;;10.48;62.87;99561.19;273701;1258;22206;-84
2023/05/13 21:12:11;;;;;;;17.10;8.90;;;;;;;10.44;63.23;99558.69;272771;1259;22553;-83
2023/05/13 21:18:13;;;;;;;18.10;10.70;;;;;;;10.37;63.79;99560.80;271588;1269;22549;-83
2023/05/13 21:24:18;;;;;;;21.90;12.20;;;;;;;10.02;64.35;99562.61;272674;1262;22229;-83
2023/05/13 21:30:19;;;;;;;24.40;13.50;;;;;;;9.64;65.79;99556.42;273715;1262;23053;-83
2023/05/13 21:36:20;;;;;;;22.90;12.60;;;;;;;9.37;66.52;99554.58;273121;1270;23546;-84
2023/05/13 21:42:22;;;;;;;19.60;11.40;;;;;;;9.25;67.98;99561.45;272905;1262;23846;-82
2023/05/13 21:48:24;;;;;;;22.20;11.80;;;;;;;9.20;68.60;99563.38;271203;1257;22507;-83
2023/05/13 21:54:25;;;;;;;18.80;10.70;;;;;;;8.99;69.11;99562.27;271500;1256;23179;-86
2023/05/13 22:00:27;;;;;;;21.10;12.20;;;;;;;8.69;69.29;99566.36;270625;1269;22175;-84
2023/05/13 22:06:27;;;;;;;22.10;11.70;;;;;;;8.45;69.92;99565.53;273667;1259;22389;-84
2023/05/13 22:12:28;;;;;;;15.30;10.10;;;;;;;8.32;70.52;99566.55;273685;1269;22316;-83
2023/05/13 22:18:30;;;;;;;17.10;8.80;;;;;;;8.11;70.82;99567.38;273711;1259;22324;-84
2023/05/13 22:24:31;;;;;;;18.30;10.50;;;;;;;8.05;72.50;99569.25;273552;1259;22643;-84
2023/05/13 22:30:32;;;;;;;21.30;12.50;;;;;;;7.95;73.00;99569.96;273801;1262;23048;-84
2023/05/13 22:36:32;;;;;;;22.20;12.40;;;;;;;7.80;73.55;99568.25;273747;1269;22201;-84
2023/05/13 22:42:33;;;;;;;20.50;13.00;;;;;;;7.71;73.87;99565.15;273729;1269;22942;-83
2023/05/13 22:48:34;;;;;;;25.40;13.00;;;;;;;7.59;74.20;99560.50;273494;1259;22244;-84
2023/05/13 22:54:36;;;;;;;26.80;15.70;;;;;;;7.48;74.44;99565.62;273703;1259;22373;-84
2023/05/13 23:00:43;;;;;;;28.40;16.00;;;;;;;7.43;75.09;99567.14;273724;1259;22334;-85
2023/05/13 23:06:46;;;;;;;23.30;14.90;;;;;;;7.42;75.75;99564.48;273148;1269;22436;-83
2023/05/13 23:12:47;;;;;;;30.10;16.90;;;;;;;7.16;74.88;99568.50;273673;1269;22400;-84
2023/05/13 23:18:49;;;;;;;37.60;19.40;;;;;;;6.85;74.73;99557.48;273572;1269;22335;-85
2023/05/13 23:24:50;;;;;;;30.10;16.50;;;;;;;6.79;76.80;99549.79;273496;1269;22247;-83
2023/05/13 23:30:56;;;;;;;33.80;19.20;;;;;;;6.76;77.31;99544.31;272848;1262;22334;-83
2023/05/13 23:37:00;;;;;;;34.70;19.20;;;;;;;6.73;78.02;99540.42;271631;1265;22313;-83
2023/05/13 23:43:01;;;;;;;34.80;19.00;;;;;;;6.70;78.13;99538.59;272978;1262;23186;-84
2023/05/13 23:49:02;;;;;;;33.90;19.60;;;;;;;6.61;78.12;99535.95;271646;1269;22534;-84
2023/05/13 23:55:04;;;;;;;33.60;19.80;;;;;;;6.37;78.15;99532.61;272125;1260;22517;-83
